createdAt,value
2022-12-05T00:01:23.289Z,97.67
2022-12-05T00:03:53.070Z,96.62
2022-12-05T00:06:21.146Z,96.78
2022-12-05T00:08:48.728Z,96.42
2022-12-05T00:11:24.486Z,96.59
2022-12-05T00:13:54.063Z,97.71
2022-12-05T00:16:24.137Z,96.84
2022-12-05T00:18:51.685Z,96.84
2022-12-05T00:21:22.111Z,97.03
2022-12-05T00:23:50.071Z,97.39
2022-12-05T00:26:17.675Z,96.85
2022-12-05T00:28:44.834Z,96.89
2022-12-05T00:31:17.675Z,96.77
2022-12-05T00:33:45.646Z,97.28
2022-12-05T00:36:14.712Z,97.40
2022-12-05T00:38:42.386Z,98.53
2022-12-05T00:41:20.755Z,99.57
2022-12-05T00:43:47.870Z,99.39
2022-12-05T00:46:20.534Z,100.00
2022-12-05T00:48:47.543Z,99.95
2022-12-05T00:51:23.391Z,100.00
2022-12-05T00:53:50.909Z,99.70
2022-12-05T00:56:21.665Z,99.91
2022-12-05T00:58:50.182Z,98.42
2022-12-05T01:01:24.188Z,98.90
2022-12-05T01:03:55.473Z,97.98
2022-12-05T01:06:23.630Z,97.34
2022-12-05T01:08:51.863Z,96.59
2022-12-05T01:11:19.845Z,97.91
2022-12-05T01:13:47.049Z,98.95
2022-12-05T01:16:19.886Z,99.32
2022-12-05T01:18:46.752Z,99.83
2022-12-05T01:21:13.790Z,98.50
2022-12-05T01:23:40.713Z,97.70
2022-12-05T01:26:09.952Z,97.08
2022-12-05T01:28:37.177Z,96.52
2022-12-05T01:31:09.710Z,97.85
2022-12-05T01:33:36.476Z,97.47
2022-12-05T01:36:04.391Z,97.66
2022-12-05T01:38:31.194Z,97.87
2022-12-05T01:41:03.703Z,97.41
2022-12-05T01:43:31.309Z,97.21
2022-12-05T01:45:58.348Z,97.30
2022-12-05T01:48:33.400Z,96.31
2022-12-05T01:51:01.267Z,95.60
2022-12-05T01:53:28.793Z,95.55
2022-12-05T01:55:56.474Z,96.31
2022-12-05T01:58:30.112Z,97.95
2022-12-05T02:00:56.918Z,98.07
2022-12-05T02:03:23.743Z,97.70
2022-12-05T02:05:54.383Z,96.23
2022-12-05T02:08:21.672Z,96.78
2022-12-05T02:10:54.346Z,98.70
2022-12-05T02:13:27.035Z,99.31
2022-12-05T02:16:12.521Z,100.00
2022-12-05T02:18:51.390Z,100.00
2022-12-05T02:21:31.568Z,100.00
2022-12-05T02:24:16.485Z,99.27
2022-12-05T02:27:04.728Z,100.00
2022-12-05T02:29:37.430Z,100.00
2022-12-05T02:32:21.230Z,100.00
2022-12-05T02:34:50.796Z,100.00
2022-12-05T02:37:29.984Z,100.00
2022-12-05T02:40:15.592Z,100.00
2022-12-05T02:42:51.513Z,100.00
2022-12-05T02:45:22.665Z,100.00
2022-12-05T02:47:53.232Z,100.00
2022-12-05T02:50:25.512Z,100.00
2022-12-05T02:52:54.711Z,99.81
2022-12-05T02:55:24.943Z,100.00
2022-12-05T02:57:56.985Z,98.62
2022-12-05T03:00:24.108Z,98.08
2022-12-05T03:02:58.626Z,98.70
2022-12-05T03:06:03.433Z,100.00
2022-12-05T03:08:37.268Z,100.00
2022-12-05T03:11:04.631Z,100.00
2022-12-05T03:14:03.149Z,100.00
2022-12-05T03:16:36.894Z,100.00
2022-12-05T03:19:19.168Z,99.74
2022-12-05T03:21:52.687Z,99.80
2022-12-05T03:24:19.951Z,98.78
2022-12-05T03:27:24.190Z,97.50
2022-12-05T03:29:57.082Z,98.15
2022-12-05T03:32:33.752Z,99.75
2022-12-05T03:35:14.913Z,100.00
2022-12-05T03:38:21.476Z,100.00
2022-12-05T03:40:50.633Z,98.25
2022-12-05T03:43:45.790Z,100.00
2022-12-05T03:46:27.764Z,99.98
2022-12-05T03:49:20.873Z,99.23
2022-12-05T03:51:55.982Z,99.27
2022-12-05T03:54:31.353Z,99.63
2022-12-05T03:57:14.783Z,98.98
2022-12-05T03:59:48.542Z,99.46
2022-12-05T04:02:47.906Z,98.74
2022-12-05T04:05:43.469Z,98.67
2022-12-05T04:08:29.916Z,97.90
2022-12-05T04:11:03.385Z,98.75
2022-12-05T04:13:37.543Z,100.00
2022-12-05T04:16:52.627Z,100.00
2022-12-05T04:20:02.405Z,100.00
2022-12-05T04:22:29.807Z,99.88
2022-12-05T04:25:17.872Z,100.00
2022-12-05T04:27:59.924Z,100.00
2022-12-05T04:30:47.428Z,100.00
2022-12-05T04:33:26.767Z,100.00
2022-12-05T04:36:12.407Z,100.00
2022-12-05T04:38:54.247Z,100.00
2022-12-05T04:41:26.672Z,100.00
2022-12-05T04:43:57.510Z,100.00
2022-12-05T04:46:25.250Z,100.00
2022-12-05T04:48:59.595Z,100.00
2022-12-05T04:51:32.272Z,100.00
2022-12-05T04:54:11.196Z,100.00
2022-12-05T04:56:39.986Z,100.00
2022-12-05T04:59:06.910Z,100.00
2022-12-05T05:01:46.043Z,100.00
2022-12-05T05:04:23.430Z,100.00
2022-12-05T05:06:50.145Z,100.00
2022-12-05T05:09:16.905Z,100.00
2022-12-05T05:11:43.664Z,100.00
2022-12-05T05:14:10.466Z,100.00
2022-12-05T05:16:40.465Z,100.00
2022-12-05T05:19:08.585Z,100.00
2022-12-05T05:21:38.527Z,100.00
2022-12-05T05:24:06.664Z,100.00
2022-12-05T05:26:38.825Z,100.00
2022-12-05T05:29:06.270Z,100.00
2022-12-05T05:31:33.233Z,100.00
2022-12-05T05:34:05.853Z,100.00
2022-12-05T05:36:35.841Z,100.00
2022-12-05T05:39:03.279Z,100.00
2022-12-05T05:41:32.672Z,100.00
2022-12-05T05:44:00.161Z,100.00
2022-12-05T05:46:30.372Z,100.00
2022-12-05T05:48:57.910Z,100.00
2022-12-05T05:51:29.541Z,100.00
2022-12-05T06:01:22.853Z,100.00
2022-12-05T06:03:51.093Z,100.00
2022-12-05T06:06:19.609Z,100.00
2022-12-05T06:08:46.518Z,100.00
2022-12-05T06:11:26.949Z,100.00
2022-12-05T06:13:55.830Z,100.00
2022-12-05T06:16:22.981Z,100.00
2022-12-05T06:18:50.179Z,100.00
2022-12-05T06:21:17.397Z,100.00
2022-12-05T06:23:44.457Z,100.00
2022-12-05T06:26:16.315Z,100.00
2022-12-05T06:28:43.226Z,100.00
2022-12-05T06:31:16.569Z,100.00
2022-12-05T06:33:43.937Z,100.00
2022-12-05T06:36:14.629Z,100.00
2022-12-05T06:38:42.521Z,100.00
2022-12-05T06:41:13.611Z,100.00
2022-12-05T06:43:40.709Z,100.00
2022-12-05T06:46:09.770Z,100.00
2022-12-05T06:48:36.784Z,100.00
2022-12-05T06:51:04.619Z,100.00
2022-12-05T06:53:31.374Z,100.00
2022-12-05T06:56:03.131Z,100.00
2022-12-05T06:58:31.094Z,100.00
2022-12-05T07:01:16.683Z,100.00
2022-12-05T07:03:44.332Z,100.00
2022-12-05T07:06:11.565Z,100.00
2022-12-05T07:08:38.618Z,100.00
2022-12-05T07:11:05.527Z,100.00
2022-12-05T07:13:32.804Z,100.00
2022-12-05T07:16:00.349Z,100.00
2022-12-05T07:18:27.365Z,100.00
2022-12-05T07:21:12.251Z,100.00
2022-12-05T07:23:41.524Z,100.00
2022-12-05T07:26:10.171Z,100.00
2022-12-05T07:28:37.015Z,100.00
2022-12-05T07:31:12.169Z,100.00
2022-12-05T07:33:39.448Z,100.00
2022-12-05T07:36:13.109Z,100.00
2022-12-05T07:38:40.856Z,100.00
2022-12-05T07:41:13.517Z,100.00
2022-12-05T07:43:41.619Z,100.00
2022-12-05T07:46:11.553Z,100.00
2022-12-05T07:48:39.051Z,100.00
2022-12-05T07:51:08.221Z,100.00
2022-12-05T07:53:35.268Z,100.00
2022-12-05T07:56:04.974Z,100.00
2022-12-05T07:58:33.183Z,100.00
2022-12-05T08:01:14.226Z,100.00
2022-12-05T08:03:42.047Z,100.00
2022-12-05T08:06:14.323Z,100.00
2022-12-05T08:08:41.295Z,100.00
2022-12-05T08:11:11.212Z,100.00
2022-12-05T08:13:38.453Z,100.00
2022-12-05T08:16:08.284Z,100.00
2022-12-05T08:18:35.004Z,100.00
2022-12-05T08:21:13.966Z,100.00
2022-12-05T08:23:41.170Z,100.00
2022-12-05T08:26:16.898Z,100.00
2022-12-05T08:28:44.496Z,100.00
2022-12-05T08:31:16.762Z,100.00
2022-12-05T08:33:44.447Z,100.00
2022-12-05T08:36:14.086Z,100.00
2022-12-05T08:38:40.988Z,100.00
2022-12-05T08:41:10.484Z,100.00
2022-12-05T08:43:37.510Z,100.00
2022-12-05T08:46:04.486Z,100.00
2022-12-05T08:48:34.850Z,100.00
2022-12-05T08:51:07.170Z,100.00
2022-12-05T08:53:35.079Z,100.00
2022-12-05T08:56:05.668Z,100.00
2022-12-05T08:58:33.148Z,100.00
2022-12-05T09:01:13.882Z,100.00
2022-12-05T09:03:47.377Z,100.00
2022-12-05T09:06:24.012Z,100.00
2022-12-05T09:08:59.017Z,100.00
2022-12-05T09:11:28.606Z,100.00
2022-12-05T09:13:57.822Z,100.00
2022-12-05T09:16:35.224Z,100.00
2022-12-05T09:19:04.247Z,100.00
2022-12-05T09:21:32.710Z,100.00
2022-12-05T09:24:00.977Z,100.00
2022-12-05T09:26:29.054Z,100.00
2022-12-05T09:28:56.148Z,100.00
2022-12-05T09:31:27.143Z,100.00
2022-12-05T09:33:54.536Z,100.00
2022-12-05T09:36:26.654Z,100.00
2022-12-05T09:38:55.374Z,100.00
2022-12-05T09:42:09.774Z,100.00
2022-12-05T09:44:45.363Z,100.00
2022-12-05T09:47:28.739Z,100.00
2022-12-05T09:50:01.817Z,100.00
2022-12-05T09:52:37.977Z,100.00
2022-12-05T09:55:14.535Z,100.00
2022-12-05T09:57:48.620Z,100.00
2022-12-05T10:00:15.942Z,100.00
2022-12-05T10:03:01.147Z,100.00
2022-12-05T10:05:41.171Z,100.00
2022-12-05T10:08:36.814Z,100.00
2022-12-05T10:11:19.496Z,100.00
2022-12-05T10:14:06.574Z,100.00
2022-12-05T10:16:40.365Z,100.00
2022-12-05T10:19:16.052Z,100.00
2022-12-05T10:21:59.230Z,100.00
2022-12-05T10:24:32.018Z,100.00
2022-12-05T10:27:05.341Z,100.00
2022-12-05T10:29:51.089Z,100.00
2022-12-05T10:32:24.125Z,100.00
2022-12-05T10:34:54.799Z,100.00
2022-12-05T10:37:24.372Z,100.00
2022-12-05T10:39:52.527Z,100.00
2022-12-05T10:42:36.206Z,100.00
2022-12-05T10:45:08.526Z,100.00
2022-12-05T10:47:36.150Z,100.00
2022-12-05T10:50:07.936Z,100.00
2022-12-05T10:52:35.595Z,100.00
2022-12-05T10:55:08.364Z,100.00
2022-12-05T10:57:35.087Z,100.00
2022-12-05T11:00:15.904Z,100.00
2022-12-05T11:02:43.975Z,100.00
2022-12-05T11:05:11.871Z,100.00
2022-12-05T11:07:44.794Z,100.00
2022-12-05T11:10:30.972Z,100.00
2022-12-05T11:12:59.424Z,100.00
2022-12-05T11:15:31.608Z,100.00
2022-12-05T11:18:28.694Z,100.00
2022-12-05T11:20:56.332Z,100.00
2022-12-05T11:23:31.935Z,100.00
2022-12-05T11:25:59.333Z,100.00
2022-12-05T11:28:37.933Z,100.00
2022-12-05T11:31:16.876Z,100.00
2022-12-05T11:33:43.832Z,100.00
2022-12-05T11:36:10.776Z,100.00
2022-12-05T11:38:39.738Z,100.00
2022-12-05T11:41:42.095Z,100.00
2022-12-05T11:44:22.804Z,100.00
2022-12-05T11:47:07.810Z,100.00
2022-12-05T11:49:37.526Z,100.00
2022-12-05T11:52:14.885Z,100.00
2022-12-05T11:55:04.425Z,100.00
2022-12-05T11:58:19.172Z,100.00
2022-12-05T12:01:33.050Z,100.00
2022-12-05T12:04:18.252Z,100.00
2022-12-05T12:07:06.326Z,100.00
2022-12-05T12:09:51.381Z,100.00
2022-12-05T12:12:48.707Z,100.00
2022-12-05T12:16:07.950Z,100.00
2022-12-05T12:18:47.127Z,100.00
2022-12-05T12:21:21.150Z,100.00
2022-12-05T12:24:06.147Z,100.00
2022-12-05T12:26:44.693Z,100.00
2022-12-05T12:29:49.732Z,96.46
2022-12-05T12:33:04.374Z,93.05
2022-12-05T12:35:45.092Z,92.74
2022-12-05T12:38:31.272Z,91.25
2022-12-05T12:41:19.142Z,90.60
2022-12-05T12:44:21.629Z,87.05
2022-12-05T12:46:57.778Z,84.85
2022-12-05T12:49:37.748Z,85.30
2022-12-05T12:52:28.771Z,90.81
2022-12-05T12:55:20.208Z,89.59
2022-12-05T12:57:54.286Z,89.19
2022-12-05T13:00:52.418Z,88.94
2022-12-05T13:03:27.531Z,85.52
2022-12-05T13:06:07.970Z,86.57
2022-12-05T13:08:44.326Z,87.88
2022-12-05T13:11:14.326Z,87.10
2022-12-05T13:13:47.685Z,90.04
2022-12-05T13:16:24.449Z,86.43
2022-12-05T13:18:51.407Z,87.39
2022-12-05T13:21:19.372Z,84.87
2022-12-05T13:23:50.213Z,87.46
2022-12-05T13:26:18.171Z,85.48
2022-12-05T13:28:55.338Z,88.62
2022-12-05T13:31:39.630Z,90.69
2022-12-05T13:34:07.057Z,90.16
2022-12-05T13:36:59.869Z,86.12
2022-12-05T13:39:45.499Z,89.37
2022-12-05T13:42:43.230Z,92.59
2022-12-05T13:45:17.592Z,88.92
2022-12-05T13:48:26.353Z,92.26
2022-12-05T13:51:04.686Z,89.89
2022-12-05T13:53:37.908Z,88.47
2022-12-05T13:56:22.492Z,89.13
2022-12-05T13:58:57.577Z,90.92
2022-12-05T14:01:46.518Z,89.13
2022-12-05T14:04:42.789Z,85.82
2022-12-05T14:07:11.017Z,87.51
2022-12-05T14:09:54.943Z,88.76
2022-12-05T14:12:21.891Z,89.59
2022-12-05T14:14:58.245Z,87.00
2022-12-05T14:17:28.617Z,86.55
2022-12-05T14:19:55.483Z,88.67
2022-12-05T14:22:57.854Z,87.31
2022-12-05T14:25:48.990Z,89.96
2022-12-05T14:28:38.948Z,90.47
2022-12-05T14:31:42.644Z,87.44
2022-12-05T14:34:15.566Z,88.96
2022-12-05T14:37:01.044Z,87.14
2022-12-05T14:39:52.574Z,88.78
2022-12-05T14:42:42.308Z,87.02
2022-12-05T14:45:30.574Z,87.68
2022-12-05T14:48:23.846Z,87.35
2022-12-05T14:50:53.055Z,88.09
2022-12-05T14:53:43.151Z,85.49
2022-12-05T14:56:41.538Z,86.38
2022-12-05T14:59:32.311Z,86.71
2022-12-05T15:02:03.929Z,87.99
2022-12-05T15:04:46.868Z,86.55
2022-12-05T15:07:28.788Z,86.18
2022-12-05T15:10:07.539Z,84.50
2022-12-05T15:12:47.102Z,84.68
2022-12-05T15:15:42.002Z,85.70
2022-12-05T15:18:28.662Z,86.01
2022-12-05T15:21:13.851Z,86.77
2022-12-05T15:23:49.691Z,87.78
2022-12-05T15:29:26.644Z,86.18
2022-12-05T15:31:54.894Z,84.54
2022-12-05T15:34:34.966Z,86.09
2022-12-05T15:37:22.569Z,87.58
2022-12-05T15:40:00.776Z,85.81
2022-12-05T15:42:42.134Z,86.36
2022-12-05T15:45:12.030Z,86.30
2022-12-05T15:47:40.146Z,86.00
2022-12-05T15:50:33.004Z,84.59
2022-12-05T15:53:04.043Z,84.71
2022-12-05T15:55:36.484Z,83.44
2022-12-05T15:58:13.235Z,82.17
2022-12-05T16:00:48.013Z,82.33
2022-12-05T16:03:28.548Z,82.38
2022-12-05T16:06:00.741Z,82.45
2022-12-05T16:08:40.853Z,82.24
2022-12-05T16:11:11.745Z,83.38
2022-12-05T16:13:47.787Z,85.01
2022-12-05T16:16:21.628Z,82.68
2022-12-05T16:18:59.850Z,82.22
2022-12-05T16:21:41.989Z,85.14
2022-12-05T16:24:22.735Z,84.96
2022-12-05T16:27:14.820Z,83.37
2022-12-05T16:29:42.014Z,83.91
2022-12-05T16:32:24.823Z,82.75
2022-12-05T16:34:51.986Z,81.86
2022-12-05T16:37:30.302Z,82.18
2022-12-05T16:39:57.666Z,82.54
2022-12-05T16:42:26.896Z,83.40
2022-12-05T16:45:05.013Z,83.15
2022-12-05T16:47:55.378Z,83.76
2022-12-05T16:50:22.703Z,84.40
2022-12-05T16:52:50.367Z,84.21
2022-12-05T16:55:17.370Z,85.05
2022-12-05T16:57:44.265Z,84.58
2022-12-05T17:00:15.263Z,84.61
2022-12-05T17:02:42.294Z,84.69
2022-12-05T17:05:15.093Z,84.91
2022-12-05T17:07:41.932Z,84.94
2022-12-05T17:10:08.771Z,84.70
2022-12-05T17:12:35.775Z,85.23
2022-12-05T17:15:02.701Z,85.72
2022-12-05T17:17:29.484Z,85.73
2022-12-05T17:19:56.228Z,85.67
2022-12-05T17:22:23.375Z,85.31
2022-12-05T17:24:50.254Z,84.86
2022-12-05T17:27:17.015Z,85.05
2022-12-05T17:29:43.789Z,85.71
2022-12-05T17:32:10.855Z,85.01
2022-12-05T17:34:37.612Z,84.39
2022-12-05T17:37:04.398Z,85.34
2022-12-05T17:39:31.215Z,84.71
2022-12-05T17:41:58.061Z,85.92
2022-12-05T17:44:25.017Z,85.45
2022-12-05T17:46:51.813Z,85.03
2022-12-05T17:49:18.747Z,84.78
2022-12-05T17:52:20.144Z,86.14
2022-12-05T17:54:32.687Z,86.40
2022-12-05T17:56:59.485Z,86.33
2022-12-05T17:59:26.259Z,86.43
2022-12-05T18:01:53.014Z,87.04
2022-12-05T18:04:23.129Z,86.77
2022-12-05T18:06:50.535Z,86.92
2022-12-05T18:09:17.284Z,87.06
2022-12-05T18:11:44.175Z,87.43
2022-12-05T18:14:11.013Z,87.64
2022-12-05T18:16:37.930Z,87.10
2022-12-05T18:19:04.768Z,87.04
2022-12-05T18:21:31.568Z,87.32
2022-12-05T18:23:58.409Z,87.74
2022-12-05T18:26:25.177Z,88.54
2022-12-05T18:28:53.906Z,88.34
2022-12-05T18:31:20.702Z,89.24
2022-12-05T18:33:47.591Z,89.63
2022-12-05T18:36:17.414Z,89.21
2022-12-05T18:38:53.773Z,89.95
2022-12-05T18:41:23.382Z,89.63
2022-12-05T18:43:50.614Z,90.01
2022-12-05T18:46:17.660Z,90.54
2022-12-05T18:48:47.408Z,90.53
2022-12-05T18:51:20.975Z,90.32
2022-12-05T18:53:53.507Z,90.64
2022-12-05T18:56:24.599Z,90.33
2022-12-05T18:59:04.260Z,89.65
2022-12-05T19:01:33.324Z,90.18
2022-12-05T19:04:01.943Z,90.42
2022-12-05T19:06:31.571Z,90.45
2022-12-05T19:09:00.973Z,89.88
2022-12-05T19:11:29.134Z,89.45
2022-12-05T19:14:01.408Z,89.02
2022-12-05T19:16:29.828Z,88.90
2022-12-05T19:19:00.091Z,89.07
2022-12-05T19:21:29.926Z,89.38
2022-12-05T19:23:57.550Z,89.24
2022-12-05T19:26:24.575Z,88.77
2022-12-05T19:28:51.849Z,88.38
2022-12-05T19:31:21.722Z,88.34
2022-12-05T19:33:51.732Z,88.03
2022-12-05T19:36:22.459Z,88.28
2022-12-05T19:38:51.366Z,87.83
2022-12-05T19:41:21.492Z,87.82
2022-12-05T19:43:48.186Z,88.03
2022-12-05T19:46:17.813Z,88.06
2022-12-05T19:48:46.534Z,88.11
2022-12-05T19:51:13.974Z,88.29
2022-12-05T19:53:42.413Z,87.96
2022-12-05T19:56:18.975Z,88.00
2022-12-05T19:58:46.578Z,88.13
2022-12-05T20:01:16.424Z,88.81
2022-12-05T20:03:47.768Z,88.83
2022-12-05T20:06:15.655Z,88.83
2022-12-05T20:08:42.856Z,89.48
2022-12-05T20:11:15.773Z,89.67
2022-12-05T20:13:47.682Z,90.00
2022-12-05T20:16:16.978Z,89.90
2022-12-05T20:18:43.816Z,90.12
2022-12-05T20:21:13.204Z,90.68
2022-12-05T20:23:39.967Z,90.58
2022-12-05T20:26:12.644Z,90.49
2022-12-05T20:28:40.209Z,90.69
2022-12-05T20:31:10.421Z,90.84
2022-12-05T20:33:37.811Z,90.43
2022-12-05T20:36:08.015Z,90.76
2022-12-05T20:38:35.211Z,90.85
2022-12-05T20:41:04.970Z,90.80
2022-12-05T20:43:32.496Z,90.79
2022-12-05T20:46:17.180Z,90.23
2022-12-05T20:48:44.766Z,90.76
2022-12-05T20:51:14.092Z,90.86
2022-12-05T20:53:42.741Z,91.18
2022-12-05T20:56:17.554Z,91.26
2022-12-05T20:58:46.653Z,91.79
2022-12-05T21:01:15.343Z,91.97
2022-12-05T21:03:44.940Z,91.95
2022-12-05T21:06:17.940Z,91.88
2022-12-05T21:08:45.291Z,91.76
2022-12-05T21:11:12.947Z,92.10
2022-12-05T21:13:40.304Z,92.34
2022-12-05T21:16:10.525Z,92.60
2022-12-05T21:18:37.936Z,92.72
2022-12-05T21:21:07.564Z,92.54
2022-12-05T21:23:35.062Z,92.21
2022-12-05T21:26:08.214Z,92.20
2022-12-05T21:28:35.964Z,91.94
2022-12-05T21:31:11.898Z,92.14
2022-12-05T21:33:40.084Z,92.27
2022-12-05T21:36:08.044Z,92.02
2022-12-05T21:38:35.969Z,92.26
2022-12-05T21:41:04.821Z,92.48
2022-12-05T21:43:32.932Z,91.74
2022-12-05T21:45:59.705Z,92.60
2022-12-05T21:48:26.573Z,92.43
2022-12-05T21:50:53.767Z,92.69
2022-12-05T21:53:21.445Z,92.95
2022-12-05T21:55:48.645Z,92.98
2022-12-05T21:58:15.365Z,93.26
2022-12-05T22:00:43.180Z,93.00
2022-12-05T22:03:14.199Z,93.60
2022-12-05T22:05:41.252Z,93.13
2022-12-05T22:08:08.367Z,93.39
2022-12-05T22:10:35.509Z,93.34
2022-12-05T22:13:02.336Z,93.65
2022-12-05T22:15:29.096Z,93.36
2022-12-05T22:17:55.893Z,93.70
2022-12-05T22:20:22.851Z,93.42
2022-12-05T22:22:49.770Z,93.27
2022-12-05T22:25:16.573Z,93.09
2022-12-05T22:27:43.208Z,92.96
2022-12-05T22:30:10.211Z,93.34
2022-12-05T22:32:36.974Z,92.95
2022-12-05T22:35:04.524Z,93.29
2022-12-05T22:37:31.768Z,92.42
2022-12-05T22:39:59.042Z,93.23
2022-12-05T22:42:27.404Z,93.38
2022-12-05T22:44:54.165Z,92.29
2022-12-05T22:47:21.021Z,92.54
2022-12-05T22:49:47.736Z,92.62
2022-12-05T22:52:15.525Z,93.08
2022-12-05T22:54:42.248Z,93.43
2022-12-05T22:57:09.093Z,94.64
2022-12-05T22:59:35.941Z,94.86
2022-12-05T23:02:02.697Z,95.39
2022-12-05T23:04:29.588Z,95.21
2022-12-05T23:06:56.389Z,94.98
2022-12-05T23:09:23.165Z,95.34
2022-12-05T23:11:50.686Z,95.49
2022-12-05T23:14:17.789Z,95.79
2022-12-05T23:16:44.619Z,95.06
2022-12-05T23:19:11.414Z,95.66
2022-12-05T23:21:39.950Z,95.42
2022-12-05T23:24:12.215Z,95.62
2022-12-05T23:26:45.096Z,95.57
2022-12-05T23:29:13.414Z,96.40
2022-12-05T23:31:41.521Z,96.13
2022-12-05T23:34:08.563Z,95.39
2022-12-05T23:36:35.853Z,96.24
2022-12-05T23:39:03.765Z,96.09
2022-12-05T23:41:30.763Z,96.00
2022-12-05T23:43:57.815Z,96.48
2022-12-05T23:46:26.506Z,96.08
2022-12-05T23:48:53.933Z,96.18
2022-12-05T23:51:26.657Z,96.32
2022-12-05T23:53:59.209Z,94.15
2022-12-05T23:56:29.087Z,93.85
2022-12-05T23:58:56.486Z,94.27
